Time;durP1;ratioP1;P1;durP2;ratioP2;P2;SDS_P1;SDS_P2;PMS_P1;PMS_P2;Temp;Humidity;BMP_temperature;BMP_pressure;BME280_temperature;BME280_humidity;BME280_pressure;Samples;Min_cycle;Max_cycle;Signal;HPM_P1;HPM_P2
2021/05/24 00:01:00;;;;;;;;;;;;;;;;;;5091003;28;19916;-70
2021/05/24 00:03:26;;;;;;;;;;;;;;;;;;5095172;28;19908;-70
2021/05/24 00:05:52;;;;;;;;;;;;;;;;;;5095192;28;19908;-68
2021/05/24 00:08:17;;;;;;;;;;;;;;;;;;5095461;28;19991;-68
2021/05/24 00:10:43;;;;;;;;;;;;;;;;;;5095395;28;19995;-69
2021/05/24 00:13:09;;;;;;;;;;;;;;;;;;5083624;28;19908;-69
2021/05/24 00:15:35;;;;;;;;;;;;;;;;;;5095281;28;19908;-68
2021/05/24 00:18:01;;;;;;;;;;;;;;;;;;5093139;28;19977;-69
2021/05/24 00:20:27;;;;;;;;;;;;;;;;;;5082141;28;20406;-70
2021/05/24 00:22:53;;;;;;;;;;;;;;;;;;5094589;28;19982;-70
2021/05/24 00:25:19;;;;;;;;;;;;;;;;;;5094462;28;19912;-69
2021/05/24 00:27:45;;;;;;;;;;;;;;;;;;5094630;28;19917;-69
2021/05/24 00:30:11;;;;;;;;;;;;;;;;;;5094546;28;19957;-69
2021/05/24 00:32:37;;;;;;;;;;;;;;;;;;5076230;28;19919;-69
2021/05/24 00:35:02;;;;;;;;;;;;;;;;;;5094366;28;19912;-68
2021/05/24 00:37:28;;;;;;;;;;;;;;;;;;5094553;28;20277;-68
2021/05/24 00:39:54;;;;;;;;;;;;;;;;;;5094434;28;20259;-68
2021/05/24 00:42:20;;;;;;;;;;;;;;;;;;5092308;28;19919;-68
2021/05/24 00:44:46;;;;;;;;;;;;;;;;;;5094344;28;19915;-68
2021/05/24 00:47:12;;;;;;;;;;;;;;;;;;5094015;28;19908;-69
2021/05/24 00:49:38;;;;;;;;;;;;;;;;;;5084089;28;19962;-68
2021/05/24 00:52:04;;;;;;;;;;;;;;;;;;5090440;28;20274;-68
2021/05/24 00:54:30;;;;;;;;;;;;;;;;;;5093707;28;19927;-68
2021/05/24 00:56:56;;;;;;;;;;;;;;;;;;5093892;28;19912;-68
2021/05/24 00:59:22;;;;;;;;;;;;;;;;;;5094071;28;19908;-68
2021/05/24 01:01:48;;;;;;;;;;;;;;;;;;5093842;28;19923;-69
2021/05/24 01:04:15;;;;;;;;;;;;;;;;;;5093891;28;20274;-68
2021/05/24 01:06:41;;;;;;;;;;;;;;;;;;5093878;28;19918;-68
2021/05/24 01:09:07;;;;;;;;;;;;;;;;;;5075804;28;19908;-68
2021/05/24 01:11:33;;;;;;;;;;;;;;;;;;5092724;28;20430;-69
2021/05/24 01:13:59;;;;;;;;;;;;;;;;;;5084495;28;19996;-68
2021/05/24 01:16:25;;;;;;;;;;;;;;;;;;5093452;28;19940;-68
2021/05/24 01:18:51;;;;;;;;;;;;;;;;;;5093753;28;19974;-69
2021/05/24 01:21:17;;;;;;;;;;;;;;;;;;5093839;28;20031;-68
2021/05/24 01:23:43;;;;;;;;;;;;;;;;;;5093460;28;20003;-69
2021/05/24 01:26:09;;;;;;;;;;;;;;;;;;5093503;28;19913;-70
2021/05/24 01:28:34;;;;;;;;;;;;;;;;;;5093169;28;19909;-69
2021/05/24 01:31:01;;;;;;;;;;;;;;;;;;5093338;28;19923;-69
2021/05/24 01:33:27;;;;;;;;;;;;;;;;;;5092984;28;19908;-69
2021/05/24 01:35:52;;;;;;;;;;;;;;;;;;5093473;28;20369;-69
2021/05/24 01:38:18;;;;;;;;;;;;;;;;;;5093236;28;20319;-69
2021/05/24 01:40:44;;;;;;;;;;;;;;;;;;5093099;28;20499;-69
2021/05/24 01:43:10;;;;;;;;;;;;;;;;;;5091541;28;20014;-69
2021/05/24 01:45:38;;;;;;;;;;;;;;;;;;5093045;28;19912;-70
2021/05/24 01:48:04;;;;;;;;;;;;;;;;;;5093172;28;20013;-69
2021/05/24 01:50:30;;;;;;;;;;;;;;;;;;5093048;28;19937;-68
2021/05/24 01:52:56;;;;;;;;;;;;;;;;;;5092882;28;20077;-68
2021/05/24 01:55:22;;;;;;;;;;;;;;;;;;5092784;28;19993;-68
2021/05/24 01:57:48;;;;;;;;;;;;;;;;;;5092874;28;20361;-68
2021/05/24 02:00:14;;;;;;;;;;;;;;;;;;5092670;28;19916;-68
2021/05/24 02:02:40;;;;;;;;;;;;;;;;;;5092630;28;19913;-68
2021/05/24 02:05:05;;;;;;;;;;;;;;;;;;5092756;28;20297;-72
2021/05/24 02:07:31;;;;;;;;;;;;;;;;;;5093141;28;19914;-70
2021/05/24 02:09:57;;;;;;;;;;;;;;;;;;5093047;28;20002;-70
2021/05/24 02:12:23;;;;;;;;;;;;;;;;;;5085081;28;19919;-69
2021/05/24 02:14:49;;;;;;;;;;;;;;;;;;5090282;28;20278;-70
2021/05/24 02:17:15;;;;;;;;;;;;;;;;;;5092804;28;20266;-70
2021/05/24 02:19:41;;;;;;;;;;;;;;;;;;5092738;28;19908;-70
2021/05/24 02:22:07;;;;;;;;;;;;;;;;;;5092996;28;19977;-70
2021/05/24 02:24:33;;;;;;;;;;;;;;;;;;5092793;28;19912;-69
2021/05/24 02:26:59;;;;;;;;;;;;;;;;;;5074785;28;19965;-69
2021/05/24 02:29:25;;;;;;;;;;;;;;;;;;5092671;28;20366;-70
2021/05/24 02:31:51;;;;;;;;;;;;;;;;;;5092549;28;19943;-70
2021/05/24 02:34:17;;;;;;;;;;;;;;;;;;5092629;28;19947;-70
2021/05/24 02:36:42;;;;;;;;;;;;;;;;;;5092300;28;19973;-69
2021/05/24 02:39:08;;;;;;;;;;;;;;;;;;5092476;28;19912;-69
2021/05/24 02:41:34;;;;;;;;;;;;;;;;;;5091667;28;20316;-69
2021/05/24 02:44:00;;;;;;;;;;;;;;;;;;5093042;28;20374;-69
2021/05/24 02:46:26;;;;;;;;;;;;;;;;;;5096477;28;19912;-69
2021/05/24 02:48:52;;;;;;;;;;;;;;;;;;5096458;28;19934;-69
2021/05/24 02:51:18;;;;;;;;;;;;;;;;;;5096425;28;19912;-69
2021/05/24 02:53:44;;;;;;;;;;;;;;;;;;5095964;28;19930;-69
2021/05/24 02:56:10;;;;;;;;;;;;;;;;;;5096488;28;19912;-69
2021/05/24 02:58:36;;;;;;;;;;;;;;;;;;5096325;28;19908;-69
2021/05/24 03:01:02;;;;;;;;;;;;;;;;;;5081610;28;19929;-69
2021/05/24 03:03:30;;;;;;;;;;;;;;;;;;5081843;28;20267;-69
2021/05/24 03:05:56;;;;;;;;;;;;;;;;;;5087709;28;19911;-69
2021/05/24 03:08:22;;;;;;;;;;;;;;;;;;5081728;28;20003;-69
2021/05/24 03:10:48;;;;;;;;;;;;;;;;;;5075048;28;19913;-70
2021/05/24 03:13:14;;;;;;;;;;;;;;;;;;5081210;28;19915;-69
2021/05/24 03:15:40;;;;;;;;;;;;;;;;;;5079795;28;19909;-69
2021/05/24 03:18:06;;;;;;;;;;;;;;;;;;5083109;28;19919;-68
2021/05/24 03:20:32;;;;;;;;;;;;;;;;;;5079847;28;19916;-68
2021/05/24 03:22:58;;;;;;;;;;;;;;;;;;5083449;28;19919;-68
2021/05/24 03:25:24;;;;;;;;;;;;;;;;;;5079723;28;20360;-68
2021/05/24 03:27:50;;;;;;;;;;;;;;;;;;5082003;28;19909;-68
2021/05/24 03:30:16;;;;;;;;;;;;;;;;;;5080934;28;19991;-67
2021/05/24 03:32:42;;;;;;;;;;;;;;;;;;5079217;28;19912;-69
2021/05/24 03:35:07;;;;;;;;;;;;;;;;;;5082496;28;19908;-65
2021/05/24 03:37:33;;;;;;;;;;;;;;;;;;5079361;28;19909;-67
2021/05/24 03:39:59;;;;;;;;;;;;;;;;;;5083121;28;20368;-68
2021/05/24 03:42:25;;;;;;;;;;;;;;;;;;5078100;28;20282;-67
2021/05/24 03:44:51;;;;;;;;;;;;;;;;;;5081446;28;19970;-68
2021/05/24 03:47:17;;;;;;;;;;;;;;;;;;5079791;28;20286;-67
2021/05/24 03:49:45;;;;;;;;;;;;;;;;;;5079330;28;20005;-68
2021/05/24 03:52:11;;;;;;;;;;;;;;;;;;5082098;28;20317;-68
2021/05/24 03:54:37;;;;;;;;;;;;;;;;;;5078067;28;19921;-68
2021/05/24 03:57:02;;;;;;;;;;;;;;;;;;5082564;28;19912;-68
2021/05/24 03:59:28;;;;;;;;;;;;;;;;;;5081766;28;19908;-68
2021/05/24 04:01:54;;;;;;;;;;;;;;;;;;5068134;28;19921;-68
2021/05/24 04:04:21;;;;;;;;;;;;;;;;;;5057392;28;19913;-71
2021/05/24 04:06:52;;;;;;;;;;;;;;;;;;5092181;28;20370;-69
2021/05/24 04:09:18;;;;;;;;;;;;;;;;;;5093079;28;19912;-70
2021/05/24 04:11:44;;;;;;;;;;;;;;;;;;5058195;28;19938;-70
2021/05/24 04:14:10;;;;;;;;;;;;;;;;;;5072607;28;19961;-70
2021/05/24 04:16:36;;;;;;;;;;;;;;;;;;5071049;28;20007;-70
2021/05/24 04:19:07;;;;;;;;;;;;;;;;;;5071676;28;19952;-70
2021/05/24 04:21:33;;;;;;;;;;;;;;;;;;5060696;28;19930;-69
2021/05/24 04:23:59;;;;;;;;;;;;;;;;;;5063499;28;19924;-68
2021/05/24 04:26:25;;;;;;;;;;;;;;;;;;5063158;28;19917;-69
2021/05/24 04:28:50;;;;;;;;;;;;;;;;;;5085396;28;19981;-69
2021/05/24 04:31:16;;;;;;;;;;;;;;;;;;5089193;28;20383;-69
2021/05/24 04:33:42;;;;;;;;;;;;;;;;;;5084333;28;19997;-69
2021/05/24 04:36:08;;;;;;;;;;;;;;;;;;5080081;28;19908;-69
2021/05/24 04:38:34;;;;;;;;;;;;;;;;;;5086176;28;19908;-69
2021/05/24 04:41:00;;;;;;;;;;;;;;;;;;5086853;28;19927;-69
2021/05/24 04:43:32;;;;;;;;;;;;;;;;;;5087267;28;19908;-69
2021/05/24 04:45:58;;;;;;;;;;;;;;;;;;5085776;28;19916;-69
2021/05/24 04:48:24;;;;;;;;;;;;;;;;;;5088742;28;19977;-69
2021/05/24 04:50:50;;;;;;;;;;;;;;;;;;5083498;28;20359;-69
2021/05/24 04:53:16;;;;;;;;;;;;;;;;;;5088730;28;19962;-69
2021/05/24 04:55:42;;;;;;;;;;;;;;;;;;5084597;28;20362;-69
2021/05/24 04:58:08;;;;;;;;;;;;;;;;;;5087701;28;19915;-70
2021/05/24 05:00:34;;;;;;;;;;;;;;;;;;5089547;28;19913;-69
2021/05/24 05:03:00;;;;;;;;;;;;;;;;;;5093732;28;19957;-69
2021/05/24 05:05:26;;;;;;;;;;;;;;;;;;5093849;28;20362;-69
2021/05/24 05:07:52;;;;;;;;;;;;;;;;;;5092776;28;19908;-69
2021/05/24 05:10:18;;;;;;;;;;;;;;;;;;5093951;28;19915;-69
2021/05/24 05:12:44;;;;;;;;;;;;;;;;;;5083688;28;19908;-69
2021/05/24 05:15:10;;;;;;;;;;;;;;;;;;5093630;28;19914;-69
2021/05/24 05:17:35;;;;;;;;;;;;;;;;;;5093564;28;19908;-69
2021/05/24 05:20:01;;;;;;;;;;;;;;;;;;5093674;28;19932;-69
2021/05/24 05:22:27;;;;;;;;;;;;;;;;;;5093963;28;19908;-69
2021/05/24 05:24:53;;;;;;;;;;;;;;;;;;5093785;28;19935;-69
2021/05/24 05:27:19;;;;;;;;;;;;;;;;;;5093379;28;20274;-69
2021/05/24 05:29:45;;;;;;;;;;;;;;;;;;5093234;28;19912;-69
2021/05/24 05:32:11;;;;;;;;;;;;;;;;;;5093312;28;19958;-69
2021/05/24 05:34:37;;;;;;;;;;;;;;;;;;5093219;28;19914;-69
2021/05/24 05:37:03;;;;;;;;;;;;;;;;;;5093216;28;20251;-69
2021/05/24 05:39:29;;;;;;;;;;;;;;;;;;5093062;28;19908;-69
2021/05/24 05:41:55;;;;;;;;;;;;;;;;;;5092327;28;19924;-69
2021/05/24 05:44:21;;;;;;;;;;;;;;;;;;5092999;28;20003;-69
2021/05/24 05:46:47;;;;;;;;;;;;;;;;;;5092890;28;19908;-69
2021/05/24 05:49:13;;;;;;;;;;;;;;;;;;5092650;28;19908;-69
2021/05/24 05:51:39;;;;;;;;;;;;;;;;;;5093071;28;19909;-69
2021/05/24 05:54:04;;;;;;;;;;;;;;;;;;5092714;28;19924;-69
2021/05/24 05:56:30;;;;;;;;;;;;;;;;;;5092763;28;19916;-69
2021/05/24 05:58:56;;;;;;;;;;;;;;;;;;5092596;28;19908;-69
2021/05/24 06:01:22;;;;;;;;;;;;;;;;;;5092478;28;19922;-69
2021/05/24 06:03:48;;;;;;;;;;;;;;;;;;5092332;28;19908;-69
2021/05/24 06:06:14;;;;;;;;;;;;;;;;;;5092581;28;19912;-69
2021/05/24 06:08:40;;;;;;;;;;;;;;;;;;5092677;28;19938;-69
2021/05/24 06:11:06;;;;;;;;;;;;;;;;;;5092445;28;20053;-69
2021/05/24 06:13:32;;;;;;;;;;;;;;;;;;5082903;28;19947;-69
2021/05/24 06:15:58;;;;;;;;;;;;;;;;;;5092403;28;19960;-69
2021/05/24 06:18:24;;;;;;;;;;;;;;;;;;5092278;28;20389;-69
2021/05/24 06:20:50;;;;;;;;;;;;;;;;;;5092506;28;19916;-69
2021/05/24 06:23:16;;;;;;;;;;;;;;;;;;5092670;28;20004;-69
2021/05/24 06:25:42;;;;;;;;;;;;;;;;;;5093042;28;20334;-69
2021/05/24 06:28:08;;;;;;;;;;;;;;;;;;5092538;28;19908;-69
2021/05/24 06:30:34;;;;;;;;;;;;;;;;;;5092034;28;19976;-69
2021/05/24 06:32:59;;;;;;;;;;;512.10;1433.60;;;;;;5092693;28;20343;-69
2021/05/24 06:35:25;;;;;;;;;;;512.00;1433.60;;;;;;5091498;28;19919;-70
2021/05/24 06:37:51;;;;;;;;;;;512.10;1433.60;;;;;;5092054;28;19916;-70
2021/05/24 06:40:17;;;;;;;;;;;;;;;;;;5091808;28;19912;-69
2021/05/24 06:42:43;;;;;;;;;;;;;;;;;;5082478;28;19916;-69
2021/05/24 06:45:09;;;;;;;;;;;;;;;;;;5087278;28;19908;-69
2021/05/24 06:47:35;;;;;;;;;;;;;;;;;;5091852;28;20282;-69
2021/05/24 06:50:01;;;;;;;;;;;;;;;;;;5091861;28;20377;-70
2021/05/24 06:52:27;;;;;;;;;;;;;;;;;;5091888;28;19908;-69
2021/05/24 06:54:53;;;;;;;;;;;;;;;;;;5091931;28;20014;-69
2021/05/24 06:57:19;;;;;;;;;;;;;;;;;;5091969;28;19947;-69
2021/05/24 06:59:45;;;;;;;;;;;;;;;;;;5091983;28;19908;-70
2021/05/24 07:02:11;;;;;;;;;;;;;;;;;;5092470;28;19923;-69
2021/05/24 07:04:37;;;;;;;;;;;;;;;;;;5091681;28;19912;-69
2021/05/24 07:07:04;;;;;;;;;;;;;;;;;;5092116;28;19912;-69
2021/05/24 07:09:30;;;;;;;;;;;;;;;;;;5091865;28;20256;-69
2021/05/24 07:11:56;;;;;;;;;;;;;;;;;;5089144;28;20010;-69
2021/05/24 07:14:22;;;;;;;;;;;;;;;;;;5086060;28;19908;-69
2021/05/24 07:16:50;;;;;;;;;;;;;;;;;;5091987;28;19908;-70
2021/05/24 07:19:15;;;;;;;;;;;;;;;;;;5091998;28;19916;-69
2021/05/24 07:21:41;;;;;;;;;;;;;;;;;;5092293;28;19916;-69
2021/05/24 07:24:07;;;;;;;;;;;;;;;;;;5092264;28;19912;-70
2021/05/24 07:26:33;;;;;;;;;;;;;;;;;;5091739;28;20271;-69
2021/05/24 07:28:59;;;;;;;;;;;;;;;;;;5091870;28;20274;-69
2021/05/24 07:31:25;;;;;;;;;;;;;;;;;;5095265;28;19915;-69
2021/05/24 07:33:51;;;;;;;;;;;;;;;;;;5095768;28;19916;-70
2021/05/24 07:36:17;;;;;;;;;;;;;;;;;;5095281;28;19909;-69
2021/05/24 07:38:43;;;;;;;;;;;;;;;;;;5095482;28;20294;-69
2021/05/24 07:41:09;;;;;;;;;;;;;;;;;;5095607;28;19943;-69
2021/05/24 07:43:36;;;;;;;;;;;;;;;;;;5081067;28;20362;-69
2021/05/24 07:46:01;;;;;;;;;;;;;;;;;;5095543;28;19915;-69
2021/05/24 07:48:27;;;;;;;;;;;;;;;;;;5095027;28;19909;-69
2021/05/24 07:50:53;;;;;;;;;;;;;;;;;;5095021;28;20366;-70
2021/05/24 07:53:19;;;;;;;;;;;;;;;;;;5094913;28;19923;-69
2021/05/24 07:55:45;;;;;;;;;;;;;;;;;;5095016;28;20435;-69
2021/05/24 07:58:11;;;;;;;;;;;;;;;;;;5094918;28;20006;-69
2021/05/24 08:00:37;;;;;;;;;;;;;;;;;;5094779;28;19919;-69
2021/05/24 08:03:03;;;;;;;;;;;;;;;;;;5094993;28;19908;-69
2021/05/24 08:05:29;;;;;;;;;;;;;;;;;;5094855;28;19916;-69
2021/05/24 08:07:55;;;;;;;;;;;;;;;;;;5080583;28;19908;-69
2021/05/24 08:10:21;;;;;;;;;;;;;;;;;;5094830;28;19997;-69
2021/05/24 08:12:47;;;;;;;;;;;;;;;;;;5085541;28;19916;-70
2021/05/24 08:15:15;;;;;;;;;;;;;;;;;;5094690;28;19908;-69
2021/05/24 08:17:41;;;;;;;;;;;;;;;;;;5094684;28;19961;-69
2021/05/24 08:20:07;;;;;;;;;;;;;;;;;;5094331;28;19920;-69
2021/05/24 08:22:33;;;;;;;;;;;;;;;;;;5094821;28;19931;-69
2021/05/24 08:24:59;;;;;;;;;;;;;;;;;;5094575;28;20370;-70
2021/05/24 08:27:25;;;;;;;;;;;;;;;;;;5094807;28;19919;-69
2021/05/24 08:29:51;;;;;;;;;;;;;;;;;;5094928;28;19920;-69
2021/05/24 08:32:17;;;;;;;;;;;;;;;;;;5094609;28;20259;-69
2021/05/24 08:34:43;;;;;;;;;;;;;;;;;;5094446;28;20374;-69
2021/05/24 08:37:09;;;;;;;;;;;;;;;;;;5094319;28;19908;-69
2021/05/24 08:39:34;;;;;;;;;;;;;;;;;;5094609;28;19911;-69
2021/05/24 08:42:00;;;;;;;;;;;;;;;;;;5091238;28;20054;-70
2021/05/24 08:44:27;;;;;;;;;;;;;;;;;;5083630;28;19908;-70
2021/05/24 08:46:53;;;;;;;;;;;;;;;;;;5094413;28;19915;-69
2021/05/24 08:49:19;;;;;;;;;;;;;;;;;;5094370;28;20274;-70
2021/05/24 08:51:45;;;;;;;;;;;;;;;;;;5093936;28;20409;-69
2021/05/24 08:54:10;;;;;;;;;;;563.20;1356.80;;;;;;5093897;28;19966;-69
2021/05/24 08:56:36;;;;;;;;;;;538.50;1331.20;;;;;;5094653;28;19963;-69
2021/05/24 08:59:02;;;;;;;;;;;;;;;;;;5094411;28;20295;-68
2021/05/24 09:01:28;;;;;;;;;;;;;;;;;;5094022;28;20295;-69
2021/05/24 09:03:54;;;;;;;;;;;;;;;;;;5094295;28;20019;-69
2021/05/24 09:06:20;;;;;;;;;;;;;;;;;;5093873;28;19912;-69
2021/05/24 09:08:46;;;;;;;;;;;;;;;;;;5094010;28;20453;-69
2021/05/24 09:11:29;;;;;;;;;;;563.60;1280.00;;;;;;5093924;28;19954;-69
2021/05/24 09:13:54;;;;;;;;;;;563.50;1280.00;;;;;;5085352;28;19915;-69
2021/05/24 09:16:27;;;;;;;;;;;563.70;1305.60;;;;;;5093715;28;20298;-69
2021/05/24 09:19:08;;;;;;;;;;;564.10;1254.40;;;;;;5093827;28;20340;-69
2021/05/24 09:21:34;;;;;;;;;;;588.80;1254.40;;;;;;5093844;28;19920;-69
2021/05/24 09:24:18;;;;;;;;;;;589.00;1254.40;;;;;;5093974;28;20354;-69
2021/05/24 09:26:43;;;;;;;;;;;589.20;1228.80;;;;;;5093557;28;19955;-70
2021/05/24 09:29:10;;;;;;;;;;;589.40;1254.40;;;;;;5093731;28;19951;-69
2021/05/24 09:31:36;;;;;;;;;;;589.20;1254.40;;;;;;5093573;28;20006;-69
2021/05/24 09:34:04;;;;;;;;;;;589.40;1254.40;;;;;;5093470;28;19969;-69
2021/05/24 09:36:30;;;;;;;;;;;589.40;1254.40;;;;;;5093609;28;20378;-69
2021/05/24 09:39:11;;;;;;;;;;;589.40;1254.40;;;;;;5093468;28;19931;-69
2021/05/24 09:41:40;;;;;;;;;;;589.50;1254.40;;;;;;5093583;28;20003;-70
2021/05/24 09:44:06;;;;;;;;;;;;;;;;;;5080064;28;20072;-69
2021/05/24 09:46:32;;;;;;;;;;;;;;;;;;5093295;28;19909;-70
2021/05/24 09:49:01;;;;;;;;;;;615.00;1203.20;;;;;;5093266;28;19943;-70
2021/05/24 09:51:27;;;;;;;;;;;614.90;1177.60;;;;;;5093072;28;19908;-70
2021/05/24 09:53:56;;;;;;;;;;;614.90;1177.60;;;;;;5092279;28;20416;-70
2021/05/24 09:56:22;;;;;;;;;;;615.00;1203.20;;;;;;5092804;28;19951;-70
2021/05/24 09:59:07;;;;;;;;;;;615.10;1203.20;;;;;;5093223;28;19915;-69
2021/05/24 10:01:42;;;;;;;;;;;615.30;1203.20;;;;;;5092882;28;20172;-70
2021/05/24 10:04:08;;;;;;;;;;;;;;;;;;5093280;28;20274;-69
2021/05/24 10:06:34;;;;;;;;;;;;;;;;;;5092926;28;19908;-69
2021/05/24 10:09:00;;;;;;;;;;;640.40;1152.00;;;;;;5093015;28;20289;-70
2021/05/24 10:11:26;;;;;;;;;;;640.40;1177.60;;;;;;5092817;28;19912;-69
2021/05/24 10:13:52;;;;;;;;;;;640.10;1203.20;;;;;;5084225;28;19919;-70
2021/05/24 10:16:18;;;;;;;;;;;615.30;1177.60;;;;;;5092664;28;19908;-69
2021/05/24 10:18:45;;;;;;;;;;;615.20;1203.20;;;;;;5092902;28;19923;-70
2021/05/24 10:21:11;;;;;;;;;;;615.10;1203.20;;;;;;5092769;28;19920;-69
2021/05/24 10:23:37;;;;;;;;;;;615.10;1203.20;;;;;;5092582;28;20333;-70
2021/05/24 10:26:05;;;;;;;;;;;640.00;1203.20;;;;;;5092761;28;19912;-70
2021/05/24 10:28:31;;;;;;;;;;;615.30;1177.60;;;;;;5092225;28;20410;-70
2021/05/24 10:30:58;;;;;;;;;;;615.30;1177.60;;;;;;5092591;28;19951;-70
2021/05/24 10:33:36;;;;;;;;;;;615.30;1203.20;;;;;;5092724;28;19908;-71
2021/05/24 10:36:14;;;;;;;;;;;615.30;1203.20;;;;;;5092286;28;20393;-69
2021/05/24 10:38:39;;;;;;;;;;;615.20;1177.60;;;;;;5092421;28;19912;-70
2021/05/24 10:41:09;;;;;;;;;;;615.20;1203.20;;;;;;5092170;28;19916;-70
2021/05/24 10:43:58;;;;;;;;;;;615.20;1203.20;;;;;;5078973;28;19909;-69
2021/05/24 10:46:24;;;;;;;;;;;615.20;1203.20;;;;;;5049569;28;19916;-69
2021/05/24 10:48:55;;;;;;;;;;;640.20;1177.60;;;;;;5049729;28;19909;-69
2021/05/24 10:51:21;;;;;;;;;;;640.40;1203.20;;;;;;5049777;28;19913;-70
2021/05/24 10:53:48;;;;;;;;;;;;;;;;;;5049614;28;19982;-69
2021/05/24 10:56:17;;;;;;;;;;;665.60;1126.40;;;;;;5049864;28;19974;-70
2021/05/24 10:58:43;;;;;;;;;;;665.60;1126.40;;;;;;5049460;28;19920;-70
2021/05/24 11:01:09;;;;;;;;;;;665.70;1126.40;;;;;;5049696;28;19924;-69
2021/05/24 11:03:38;;;;;;;;;;;;;;;;;;5049757;28;19909;-70
2021/05/24 11:06:04;;;;;;;;;;;;;;;;;;5052166;28;20382;-70
2021/05/24 11:08:30;;;;;;;;;;;;;;;;;;5053673;28;19952;-70
2021/05/24 11:10:56;;;;;;;;;;;;;;;;;;5037031;28;20078;-69
2021/05/24 11:13:22;;;;;;;;;;;;;;;;;;5045690;28;20011;-71
2021/05/24 11:15:48;;;;;;;;;;;;;;;;;;5053473;28;20335;-70
2021/05/24 11:18:14;;;;;;;;;;;;;;;;;;5053470;28;20003;-70
2021/05/24 11:20:41;;;;;;;;;;;;;;;;;;5053248;28;20091;-70
2021/05/24 11:23:16;;;;;;;;;;;;;;;;;;5061799;28;19916;-70
2021/05/24 11:25:54;;;;;;;;;;;;;;;;;;5075572;28;19954;-69
2021/05/24 11:28:21;;;;;;;;;;;691.60;1049.60;;;;;;5075360;28;19966;-69
2021/05/24 11:30:47;;;;;;;;;;;;;;;;;;5075540;28;20339;-69
2021/05/24 11:33:13;;;;;;;;;;;;;;;;;;5074925;28;20007;-69
2021/05/24 11:35:39;;;;;;;;;;;;;;;;;;5075150;28;19994;-70
2021/05/24 11:38:05;;;;;;;;;;;;;;;;;;5075260;28;19950;-70
2021/05/24 11:40:30;;;;;;;;;;;;;;;;;;5074712;28;19964;-70
2021/05/24 11:42:56;;;;;;;;;;;;;;;;;;5065388;28;20326;-70
2021/05/24 11:45:24;;;;;;;;;;;;;;;;;;5071669;28;19909;-70
2021/05/24 11:47:49;;;;;;;;;;;;;;;;;;5074819;28;19909;-70
2021/05/24 11:50:15;;;;;;;;;;;;;;;;;;5074463;28;19955;-70
2021/05/24 11:52:41;;;;;;;;;;;;;;;;;;5074667;28;19916;-69
2021/05/24 11:55:07;;;;;;;;;;;;;;;;;;5093029;28;20429;-69
2021/05/24 11:57:35;;;;;;;;;;;;;;;;;;5094947;28;19908;-70
2021/05/24 12:00:01;;;;;;;;;;;;;;;;;;5094849;28;19916;-70
2021/05/24 12:02:28;;;;;;;;;;;;;;;;;;5095153;28;20431;-69
2021/05/24 12:04:54;;;;;;;;;;;;;;;;;;5094672;28;19930;-69
2021/05/24 12:07:20;;;;;;;;;;;;;;;;;;5094655;28;20362;-70
2021/05/24 12:09:46;;;;;;;;;;;;;;;;;;5094772;28;19908;-70
2021/05/24 12:12:12;;;;;;;;;;;;;;;;;;5091040;28;19912;-69
2021/05/24 12:14:38;;;;;;;;;;;;;;;;;;5090357;28;20377;-69
2021/05/24 12:17:04;;;;;;;;;;;;;;;;;;5094216;28;19908;-71
2021/05/24 12:19:30;;;;;;;;;;;;;;;;;;5094659;28;19908;-70
2021/05/24 12:21:58;;;;;;;;;;;;;;;;;;5094556;28;20263;-69
2021/05/24 12:24:24;;;;;;;;;;;;;;;;;;5094743;28;19920;-70
2021/05/24 12:26:50;;;;;;;;;;;;;;;;;;5095057;28;20247;-69
2021/05/24 12:29:16;;;;;;;;;;;;;;;;;;5094706;28;19908;-70
2021/05/24 12:31:42;;;;;;;;;;;;;;;;;;5094330;28;19912;-70
2021/05/24 12:34:07;;;;;;;;;;;;;;;;;;5094367;28;19912;-70
2021/05/24 12:36:42;;;;;;;;;;;;;;;;;;5093993;28;20255;-70
2021/05/24 12:39:08;;;;;;;;;;;;;;;;;;5094266;28;20117;-69
2021/05/24 12:41:34;;;;;;;;;;;;;;;;;;5094399;28;19966;-70
2021/05/24 12:44:02;;;;;;;;;;;;;;;;;;5081510;28;20265;-69
2021/05/24 12:46:28;;;;;;;;;;;;;;;;;;5094343;28;19943;-69
2021/05/24 12:48:54;;;;;;;;;;;;;;;;;;5093992;28;20385;-69
2021/05/24 12:51:20;;;;;;;;;;;;;;;;;;5093918;28;20301;-70
2021/05/24 12:53:46;;;;;;;;;;;;;;;;;;5093648;28;20283;-69
2021/05/24 12:56:12;;;;;;;;;;;;;;;;;;5094321;28;19908;-69
2021/05/24 12:58:38;;;;;;;;;;;;;;;;;;5093811;28;19915;-70
2021/05/24 13:01:04;;;;;;;;;;;;;;;;;;5093633;28;20293;-69
2021/05/24 13:03:30;;;;;;;;;;;;;;;;;;5094086;28;19915;-69
2021/05/24 13:05:56;;;;;;;;;;;;;;;;;;5093490;28;19908;-70
2021/05/24 13:08:22;;;;;;;;;;;;;;;;;;5093843;28;19908;-70
2021/05/24 13:10:48;;;;;;;;;;;;;;;;;;5093666;28;20277;-70
2021/05/24 13:13:16;;;;;;;;;;;;;;;;;;5086216;28;19909;-70
2021/05/24 13:15:45;;;;;;;;;;;;;;;;;;5093438;28;20046;-70
2021/05/24 13:18:17;;;;;;;;;;;;;;;;;;5093332;28;19912;-70
2021/05/24 13:28:44;;;;;;;;;;;;;;;;;;5092515;28;19916;-70
2021/05/24 13:31:10;;;;;;;;;;;;;;;;;;5093138;28;19908;-69
2021/05/24 13:33:36;;;;;;;;;;;;;;;;;;5093192;28;19994;-70
2021/05/24 13:36:02;;;;;;;;;;;;;;;;;;5093093;28;19984;-70
2021/05/24 13:38:28;;;;;;;;;;;;;;;;;;5093213;28;19912;-70
2021/05/24 13:40:54;;;;;;;;;;;;;;;;;;5093097;28;19923;-69
2021/05/24 13:43:20;;;;;;;;;;;;;;;;;;5080199;28;19908;-70
2021/05/24 13:45:46;;;;;;;;;;;;;;;;;;5092932;28;19969;-70
2021/05/24 13:48:12;;;;;;;;;;;;;;;;;;5093130;28;19912;-70
2021/05/24 13:50:38;;;;;;;;;;;;;;;;;;5092670;28;19908;-70
2021/05/24 13:53:05;;;;;;;;;;;;;;;;;;5092975;28;19916;-70
2021/05/24 13:55:31;;;;;;;;;;;;;;;;;;5093014;28;20322;-70
2021/05/24 13:57:57;;;;;;;;;;;;;;;;;;5092694;28;19940;-70
2021/05/24 14:00:28;;;;;;;;;;;;;;;;;;5092466;28;20369;-69
2021/05/24 14:02:54;;;;;;;;;;;;;;;;;;5092618;28;19908;-71
2021/05/24 14:05:20;;;;;;;;;;;;;;;;;;5092664;28;19916;-70
2021/05/24 14:07:46;;;;;;;;;;;;;;;;;;5092503;28;19911;-70
2021/05/24 14:10:15;;;;;;;;;;;;;;;;;;5092632;28;19908;-70
2021/05/24 14:12:42;;;;;;;;;;;;;;;;;;5085440;28;20085;-70
2021/05/24 14:15:08;;;;;;;;;;;;;;;;;;5078501;28;19957;-70
2021/05/24 14:17:34;;;;;;;;;;;;;;;;;;5092991;28;20006;-70
2021/05/24 14:20:00;;;;;;;;;;;;;;;;;;5092671;28;20004;-70
2021/05/24 14:22:26;;;;;;;;;;;;;;;;;;5092539;28;20378;-70
2021/05/24 14:24:52;;;;;;;;;;;;;;;;;;5092665;28;20251;-70
2021/05/24 14:27:17;;;;;;;;;;;;;;;;;;5092783;28;20256;-70
2021/05/24 14:29:43;;;;;;;;;;;;;;;;;;5092553;28;19908;-69
2021/05/24 14:32:09;;;;;;;;;;;;;;;;;;5092418;28;19918;-70
2021/05/24 14:34:35;;;;;;;;;;;;;;;;;;5080261;28;19909;-69
2021/05/24 14:37:01;;;;;;;;;;;;;;;;;;5090343;28;19923;-70
2021/05/24 14:39:29;;;;;;;;;;;;;;;;;;5092388;28;20361;-70
2021/05/24 14:41:55;;;;;;;;;;;;;;;;;;5091800;28;20010;-70
2021/05/24 14:44:20;;;;;;;;;;;;;;;;;;5080691;28;19939;-70
2021/05/24 14:46:46;;;;;;;;;;;;;;;;;;5091957;28;19908;-70
2021/05/24 14:49:12;;;;;;;;;;;;;;;;;;5092110;28;19908;-71
2021/05/24 14:51:42;;;;;;;;;;;;;;;;;;5091968;28;20282;-70
2021/05/24 14:54:09;;;;;;;;;;;;;;;;;;5091690;28;19931;-70
2021/05/24 14:56:35;;;;;;;;;;;;;;;;;;5092064;28;19915;-70
2021/05/24 14:59:01;;;;;;;;;;;;;;;;;;5092219;28;19920;-70
2021/05/24 15:01:27;;;;;;;;;;;;;;;;;;5091827;28;19916;-70
2021/05/24 15:03:53;;;;;;;;;;;;;;;;;;5092233;28;19915;-70
2021/05/24 15:06:19;;;;;;;;;;;;;;;;;;5091739;28;19908;-70
2021/05/24 15:08:45;;;;;;;;;;;;;;;;;;5091978;28;19916;-70
2021/05/24 15:11:11;;;;;;;;;;;;;;;;;;5091919;28;19931;-69
2021/05/24 15:13:37;;;;;;;;;;;;;;;;;;5084869;28;19991;-70
2021/05/24 15:16:03;;;;;;;;;;;;;;;;;;5092117;28;20015;-70
2021/05/24 15:18:29;;;;;;;;;;;;;;;;;;5072979;28;19915;-70
2021/05/24 15:20:55;;;;;;;;;;;;;;;;;;5091908;28;19965;-70
2021/05/24 15:23:21;;;;;;;;;;;;;;;;;;5091970;28;19924;-70
2021/05/24 15:25:47;;;;;;;;;;;;;;;;;;5092186;28;20018;-70
2021/05/24 15:28:13;;;;;;;;;;;;;;;;;;5091782;28;20425;-70
2021/05/24 15:30:39;;;;;;;;;;;;;;;;;;5092447;28;19908;-70
2021/05/24 15:33:06;;;;;;;;;;;;;;;;;;5091579;28;20388;-70
2021/05/24 15:35:32;;;;;;;;;;;;;;;;;;5091871;28;19923;-69
2021/05/24 15:37:58;;;;;;;;;;;;;;;;;;5092026;28;19908;-69
2021/05/24 15:40:25;;;;;;;;;;;;;;;;;;5091668;28;20289;-69
2021/05/24 15:42:51;;;;;;;;;;;;;;;;;;5084036;28;19908;-69
2021/05/24 15:45:17;;;;;;;;;;;;;;;;;;5087992;28;19908;-69
2021/05/24 15:47:43;;;;;;;;;;;;;;;;;;5091856;28;19931;-70
2021/05/24 15:50:09;;;;;;;;;;;;;;;;;;5092144;28;20354;-70
2021/05/24 15:52:35;;;;;;;;;;;;;;;;;;5094877;28;20423;-69
2021/05/24 15:55:02;;;;;;;;;;;;;;;;;;5095404;28;19943;-70
2021/05/24 15:57:28;;;;;;;;;;;;;;;;;;5095276;28;19908;-69
2021/05/24 15:59:53;;;;;;;;;;;;;;;;;;5095285;28;19908;-70
2021/05/24 16:02:19;;;;;;;;;;;;;;;;;;5095280;28;19917;-70
2021/05/24 16:04:45;;;;;;;;;;;;;;;;;;5095100;28;19981;-70
2021/05/24 16:07:11;;;;;;;;;;;;;;;;;;5095052;28;19916;-70
2021/05/24 16:09:37;;;;;;;;;;;;;;;;;;5081147;28;20351;-70
2021/05/24 16:12:03;;;;;;;;;;;;;;;;;;5093923;28;20002;-70
2021/05/24 16:14:29;;;;;;;;;;;;;;;;;;5089676;28;19955;-70
2021/05/24 16:16:55;;;;;;;;;;;;;;;;;;5094907;28;19931;-69
2021/05/24 16:19:23;;;;;;;;;;;;;;;;;;5095164;28;20003;-69
2021/05/24 16:21:49;;;;;;;;;;;;;;;;;;5094618;28;19923;-69